Time;durP1;ratioP1;P1;durP2;ratioP2;P2;SDS_P1;SDS_P2;PMS_P1;PMS_P2;Temp;Humidity;BMP_temperature;BMP_pressure;BME280_temperature;BME280_humidity;BME280_pressure;Samples;Min_cycle;Max_cycle;Signal;HPM_P1;HPM_P2
2022/03/09 00:01:40;;;;;;;16.60;10.23;;;;;;;;;;4955504;28;20054;-70
2022/03/09 00:04:07;;;;;;;12.70;7.97;;;;;;;;;;4954127;28;20134;-70
2022/03/09 00:06:34;;;;;;;17.17;10.80;;;;;;;;;;4955764;28;20391;-70
2022/03/09 00:09:00;;;;;;;21.95;10.77;;;;;;;;;;4955588;28;20125;-70
2022/03/09 00:11:27;;;;;;;18.67;10.90;;;;;;;;;;4956514;28;20157;-69
2022/03/09 00:14:00;;;;;;;14.35;10.57;;;;;;;;;;4939190;28;20055;-71
2022/03/09 00:16:27;;;;;;;17.10;10.57;;;;;;;;;;4940436;28;20158;-70
2022/03/09 00:18:53;;;;;;;16.25;9.52;;;;;;;;;;4940250;28;20056;-70
2022/03/09 00:21:21;;;;;;;;;;;;;;;;;;4939836;28;20125;-70
2022/03/09 00:23:47;;;;;;;12.50;8.48;;;;;;;;;;4939368;28;20009;-70
2022/03/09 00:26:14;;;;;;;16.35;9.90;;;;;;;;;;4939443;28;20093;-70
2022/03/09 00:28:40;;;;;;;12.55;7.93;;;;;;;;;;4939321;28;20110;-70
2022/03/09 00:31:07;;;;;;;15.30;9.73;;;;;;;;;;4939216;28;20134;-70
2022/03/09 00:33:33;;;;;;;16.80;8.88;;;;;;;;;;4938675;28;20052;-70
2022/03/09 00:36:01;;;;;;;17.65;10.60;;;;;;;;;;4939071;28;20137;-70
2022/03/09 00:38:28;;;;;;;;;;;;;;;;;;4939881;28;20522;-70
2022/03/09 00:40:55;;;;;;;17.60;9.52;;;;;;;;;;4959741;28;19989;-70
2022/03/09 00:43:25;;;;;;;15.35;9.05;;;;;;;;;;4939307;28;20142;-69
2022/03/09 00:45:51;;;;;;;17.27;9.80;;;;;;;;;;4939788;28;20134;-70
2022/03/09 00:48:18;;;;;;;20.73;11.27;;;;;;;;;;4939907;28;20131;-70
2022/03/09 00:50:45;;;;;;;20.75;11.00;;;;;;;;;;4939095;28;20204;-70
2022/03/09 00:53:11;;;;;;;16.50;8.90;;;;;;;;;;4937998;28;20055;-70
2022/03/09 00:55:38;;;;;;;18.75;10.68;;;;;;;;;;4938963;28;20123;-71
2022/03/09 00:58:05;;;;;;;19.33;10.82;;;;;;;;;;4938744;28;20110;-70
2022/03/09 01:00:31;;;;;;;18.40;10.70;;;;;;;;;;4942116;28;20482;-71
2022/03/09 01:02:58;;;;;;;25.63;12.05;;;;;;;;;;4938376;28;20303;-70
2022/03/09 01:05:26;;;;;;;18.35;11.60;;;;;;;;;;4937392;28;20051;-70
2022/03/09 01:07:53;;;;;;;17.38;10.85;;;;;;;;;;4940083;28;20058;-70
2022/03/09 01:10:22;;;;;;;17.58;11.65;;;;;;;;;;4937719;28;20169;-70
2022/03/09 01:12:49;;;;;;;17.88;11.52;;;;;;;;;;4939412;28;20138;-70
2022/03/09 01:15:15;;;;;;;21.27;12.52;;;;;;;;;;4937689;28;20191;-70
2022/03/09 01:17:43;;;;;;;20.23;11.88;;;;;;;;;;4938949;28;20134;-70
2022/03/09 01:20:10;;;;;;;12.68;9.43;;;;;;;;;;4939814;28;20061;-70
2022/03/09 01:22:37;;;;;;;24.15;12.95;;;;;;;;;;4938043;28;20082;-70
2022/03/09 01:25:04;;;;;;;25.00;13.65;;;;;;;;;;4937180;28;20134;-70
2022/03/09 01:27:30;;;;;;;25.52;10.48;;;;;;;;;;4937872;28;20784;-70
2022/03/09 01:29:57;;;;;;;23.40;12.98;;;;;;;;;;4956938;28;20146;-70
2022/03/09 01:32:23;;;;;;;21.42;12.70;;;;;;;;;;4957128;28;20145;-70
2022/03/09 01:34:52;;;;;;;25.80;13.32;;;;;;;;;;4957826;28;20082;-70
2022/03/09 01:37:18;;;;;;;20.75;12.68;;;;;;;;;;4957388;28;20185;-70
2022/03/09 01:39:45;;;;;;;23.08;13.88;;;;;;;;;;4958536;28;20073;-70
2022/03/09 01:42:11;;;;;;;25.40;13.30;;;;;;;;;;4958359;28;20149;-70
2022/03/09 01:44:38;;;;;;;19.43;12.73;;;;;;;;;;4957021;28;20066;-70
2022/03/09 01:47:05;;;;;;;22.37;13.47;;;;;;;;;;4957876;28;20050;-70
2022/03/09 01:49:33;;;;;;;27.50;13.52;;;;;;;;;;4955542;28;20106;-70
2022/03/09 01:52:00;;;;;;;25.03;13.03;;;;;;;;;;4957157;28;20185;-70
2022/03/09 01:54:27;;;;;;;28.27;15.13;;;;;;;;;;4957282;28;20683;-70
2022/03/09 01:56:58;;;;;;;23.85;13.90;;;;;;;;;;4958489;28;20134;-70
2022/03/09 01:59:24;;;;;;;29.48;13.35;;;;;;;;;;4940673;28;20095;-70
2022/03/09 02:01:51;;;;;;;24.52;13.52;;;;;;;;;;4955235;28;20118;-70
2022/03/09 02:04:18;;;;;;;23.83;14.77;;;;;;;;;;4959119;28;20158;-70
2022/03/09 02:06:45;;;;;;;25.70;13.57;;;;;;;;;;4957109;28;20094;-70
2022/03/09 02:12:00;;;;;;;28.40;13.95;;;;;;;;;;4937339;28;20051;-70
2022/03/09 02:14:27;;;;;;;21.80;13.88;;;;;;;;;;4938035;29;20138;-70
2022/03/09 02:16:53;;;;;;;26.45;14.80;;;;;;;;;;4937446;28;20079;-69
2022/03/09 02:19:21;;;;;;;32.88;14.43;;;;;;;;;;4938024;28;20178;-70
2022/03/09 02:21:48;;;;;;;26.42;14.30;;;;;;;;;;4938458;28;20159;-70
2022/03/09 02:24:14;;;;;;;20.15;11.27;;;;;;;;;;4937718;28;20133;-70
2022/03/09 02:26:41;;;;;;;22.37;10.40;;;;;;;;;;4939506;28;20133;-70
2022/03/09 02:29:07;;;;;;;28.00;15.57;;;;;;;;;;4938005;28;20190;-70
2022/03/09 02:31:34;;;;;;;31.02;16.02;;;;;;;;;;4938219;28;20971;-70
2022/03/09 02:34:04;;;;;;;27.77;16.48;;;;;;;;;;4936752;28;20055;-70
2022/03/09 02:36:31;;;;;;;24.85;15.43;;;;;;;;;;4936898;28;20555;-70
2022/03/09 02:38:58;;;;;;;28.98;16.35;;;;;;;;;;4940597;28;20202;-70
2022/03/09 02:41:28;;;;;;;30.63;16.67;;;;;;;;;;4941450;28;20135;-70
2022/03/09 02:43:55;;;;;;;32.40;17.15;;;;;;;;;;4957607;28;20146;-70
2022/03/09 02:46:21;;;;;;;29.98;13.35;;;;;;;;;;4957022;28;20074;-70
2022/03/09 02:48:49;;;;;;;24.42;13.10;;;;;;;;;;4957420;28;20050;-70
2022/03/09 02:51:15;;;;;;;29.23;17.50;;;;;;;;;;4958342;28;20130;-70
2022/03/09 02:53:42;;;;;;;25.40;15.27;;;;;;;;;;4957580;28;20133;-70
2022/03/09 02:56:09;;;;;;;23.08;14.98;;;;;;;;;;4956680;28;20154;-70
2022/03/09 02:58:36;;;;;;;22.77;12.43;;;;;;;;;;4958149;28;20050;-70
2022/03/09 03:01:02;;;;;;;29.27;15.43;;;;;;;;;;4956555;28;20141;-70
2022/03/09 03:03:30;;;;;;;;;;;;;;;;;;4957457;28;20101;-70
2022/03/09 03:05:56;;;;;;;23.73;14.88;;;;;;;;;;4956864;28;20025;-70
2022/03/09 03:08:23;;;;;;;28.40;15.10;;;;;;;;;;4956327;28;20809;-70
2022/03/09 03:10:50;;;;;;;25.25;15.73;;;;;;;;;;4956450;28;20133;-71
2022/03/09 03:13:16;;;;;;;24.60;16.48;;;;;;;;;;4958189;28;20582;-69
2022/03/09 03:15:44;;;;;;;30.45;15.63;;;;;;;;;;4955726;28;20051;-70
2022/03/09 03:18:11;;;;;;;30.45;16.00;;;;;;;;;;4956918;28;20388;-70
2022/03/09 03:20:38;;;;;;;27.88;16.52;;;;;;;;;;4956008;28;20725;-70
2022/03/09 03:23:04;;;;;;;27.88;16.10;;;;;;;;;;4956095;28;20140;-70
2022/03/09 03:25:34;;;;;;;25.88;15.52;;;;;;;;;;4956453;28;20134;-70
2022/03/09 03:28:00;;;;;;;24.08;15.00;;;;;;;;;;4957173;28;20473;-70
2022/03/09 03:30:26;;;;;;;25.60;14.38;;;;;;;;;;4956567;28;21557;-70
2022/03/09 03:32:54;;;;;;;23.77;14.50;;;;;;;;;;4957678;28;20061;-70
2022/03/09 03:35:21;;;;;;;25.77;14.65;;;;;;;;;;4956268;28;20054;-71
2022/03/09 03:37:47;;;;;;;25.35;11.55;;;;;;;;;;4956435;28;20124;-71
2022/03/09 03:40:17;;;;;;;22.55;13.93;;;;;;;;;;4938337;28;20083;-70
2022/03/09 03:42:43;;;;;;;25.53;15.33;;;;;;;;;;4937106;28;20135;-70
2022/03/09 03:45:10;;;;;;;23.85;14.13;;;;;;;;;;4936538;28;20769;-70
2022/03/09 03:47:36;;;;;;;24.92;14.38;;;;;;;;;;4941906;28;20146;-70
2022/03/09 03:50:03;;;;;;;23.23;14.40;;;;;;;;;;4941967;28;20154;-70
2022/03/09 03:52:29;;;;;;;28.25;14.15;;;;;;;;;;4941057;28;20075;-70
2022/03/09 03:54:57;;;;;;;23.55;13.73;;;;;;;;;;4940890;28;20578;-70
2022/03/09 03:57:23;;;;;;;21.65;13.77;;;;;;;;;;4940090;28;20575;-70
2022/03/09 03:59:50;;;;;;;22.55;14.90;;;;;;;;;;4939667;28;20418;-70
2022/03/09 04:02:19;;;;;;;21.10;14.18;;;;;;;;;;4940686;28;20134;-70
2022/03/09 04:04:46;;;;;;;25.55;15.13;;;;;;;;;;4939714;28;20082;-70
2022/03/09 04:07:12;;;;;;;20.70;12.50;;;;;;;;;;4938019;28;20531;-70
2022/03/09 04:09:39;;;;;;;23.70;12.10;;;;;;;;;;4940920;28;20507;-70
2022/03/09 04:12:06;;;;;;;22.52;12.93;;;;;;;;;;4941263;28;21020;-70
2022/03/09 04:14:32;;;;;;;19.98;13.30;;;;;;;;;;4941095;28;20342;-70
2022/03/09 04:17:02;;;;;;;23.50;13.35;;;;;;;;;;4941173;28;20055;-69
2022/03/09 04:19:28;;;;;;;15.23;9.35;;;;;;;;;;4939633;28;20189;-70
2022/03/09 04:21:55;;;;;;;20.10;13.25;;;;;;;;;;4938534;28;20130;-70
2022/03/09 04:24:23;;;;;;;18.98;11.70;;;;;;;;;;4941142;28;20834;-70
2022/03/09 04:26:50;;;;;;;16.77;10.65;;;;;;;;;;4940159;28;20141;-70
2022/03/09 04:29:16;;;;;;;18.38;11.38;;;;;;;;;;4939152;28;20130;-70
2022/03/09 04:31:42;;;;;;;21.63;11.95;;;;;;;;;;4961071;28;20049;-70
2022/03/09 04:34:09;;;;;;;22.13;11.60;;;;;;;;;;4959976;28;20133;-70
2022/03/09 04:36:36;;;;;;;20.35;10.05;;;;;;;;;;4941547;28;20126;-70
2022/03/09 04:39:04;;;;;;;15.80;9.27;;;;;;;;;;4959046;28;20161;-70
2022/03/09 04:41:31;;;;;;;23.13;11.65;;;;;;;;;;4959837;28;20448;-70
2022/03/09 04:43:57;;;;;;;21.20;12.55;;;;;;;;;;4959458;28;20059;-70
2022/03/09 04:46:24;;;;;;;20.25;11.05;;;;;;;;;;4959523;28;20089;-70
2022/03/09 04:48:51;;;;;;;19.83;11.27;;;;;;;;;;4958529;28;20815;-70
2022/03/09 04:51:17;;;;;;;17.93;12.13;;;;;;;;;;4960880;28;20479;-71
2022/03/09 04:53:44;;;;;;;13.50;8.60;;;;;;;;;;4959716;28;20125;-70
2022/03/09 04:56:13;;;;;;;19.88;9.95;;;;;;;;;;4958537;28;20059;-70
2022/03/09 04:58:40;;;;;;;18.80;10.68;;;;;;;;;;4956935;28;20043;-70
2022/03/09 05:01:09;;;;;;;17.05;10.88;;;;;;;;;;4956994;28;20177;-70
2022/03/09 05:03:37;;;;;;;16.80;8.60;;;;;;;;;;4960801;28;20549;-70
2022/03/09 05:06:04;;;;;;;25.10;11.52;;;;;;;;;;4960799;28;20322;-70
2022/03/09 05:08:33;;;;;;;20.52;11.73;;;;;;;;;;4959692;28;20110;-70
2022/03/09 05:10:59;;;;;;;18.25;12.13;;;;;;;;;;4964655;28;20085;-70
2022/03/09 05:13:26;;;;;;;15.82;10.35;;;;;;;;;;4964528;28;20147;-70
2022/03/09 05:15:59;;;;;;;21.00;10.82;;;;;;;;;;4966307;28;20141;-70
2022/03/09 05:18:26;;;;;;;;;;;;;;;;;;4967005;28;20051;-70
2022/03/09 05:20:53;;;;;;;19.98;10.82;;;;;;;;;;4969425;28;20001;-70
2022/03/09 05:23:21;;;;;;;21.75;10.90;;;;;;;;;;4964383;28;20078;-70
2022/03/09 05:25:47;;;;;;;20.48;11.05;;;;;;;;;;4961264;28;20546;-70
2022/03/09 05:28:14;;;;;;;19.25;11.80;;;;;;;;;;4963224;28;20566;-70
2022/03/09 05:30:47;;;;;;;22.08;13.43;;;;;;;;;;4958786;28;20170;-70
2022/03/09 05:33:14;;;;;;;26.38;13.50;;;;;;;;;;4959307;28;20066;-70
2022/03/09 05:35:40;;;;;;;23.10;13.95;;;;;;;;;;4963100;28;20066;-70
2022/03/09 05:38:14;;;;;;;24.10;13.68;;;;;;;;;;4962714;28;20138;-70
2022/03/09 05:40:40;;;;;;;23.95;14.52;;;;;;;;;;4962038;28;20089;-70
2022/03/09 05:43:07;;;;;;;25.77;15.05;;;;;;;;;;4964125;28;20066;-70
2022/03/09 05:45:33;;;;;;;25.57;14.47;;;;;;;;;;4943221;28;20106;-70
2022/03/09 05:48:00;;;;;;;26.52;12.60;;;;;;;;;;4941907;28;20078;-70
2022/03/09 05:50:27;;;;;;;23.60;13.70;;;;;;;;;;4939237;28;20139;-70
2022/03/09 05:52:57;;;;;;;27.48;15.40;;;;;;;;;;4942665;28;20064;-70
2022/03/09 05:55:25;;;;;;;23.30;13.73;;;;;;;;;;4940296;28;20079;-71
2022/03/09 05:57:52;;;;;;;19.42;11.82;;;;;;;;;;4958300;28;20081;-70
2022/03/09 06:00:19;;;;;;;26.60;14.18;;;;;;;;;;4962715;28;20496;-70
2022/03/09 06:02:46;;;;;;;28.35;14.15;;;;;;;;;;4958866;28;20067;-70
2022/03/09 06:05:17;;;;;;;25.67;15.45;;;;;;;;;;4954799;28;20164;-70
2022/03/09 06:07:47;;;;;;;24.33;14.93;;;;;;;;;;4954101;28;20055;-70
2022/03/09 06:10:13;;;;;;;28.30;13.40;;;;;;;;;;4955342;28;20085;-70
2022/03/09 06:12:39;;;;;;;21.88;13.15;;;;;;;;;;4956528;28;20150;-70
2022/03/09 06:15:10;;;;;;;22.58;13.15;;;;;;;;;;4953151;28;20051;-70
2022/03/09 06:17:46;;;;;;;21.73;12.20;;;;;;;;;;4955899;28;20054;-70
2022/03/09 06:20:14;;;;;;;22.47;12.07;;;;;;;;;;4958146;28;20047;-70
2022/03/09 06:22:41;;;;;;;23.92;12.05;;;;;;;;;;4955710;28;20314;-71
2022/03/09 06:25:08;;;;;;;20.23;12.98;;;;;;;;;;4955354;28;20125;-71
2022/03/09 06:27:35;;;;;;;;;;;;;;;;;;4955238;28;20059;-71
2022/03/09 06:30:01;;;;;;;21.83;12.48;;;;;;;;;;4954489;28;20017;-71
2022/03/09 06:32:28;;;;;;;21.20;12.15;;;;;;;;;;4955848;28;20082;-71
2022/03/09 06:34:54;;;;;;;22.10;13.02;;;;;;;;;;4954340;28;20139;-71
2022/03/09 06:37:21;;;;;;;20.85;11.55;;;;;;;;;;4954286;28;20061;-71
2022/03/09 06:39:47;;;;;;;22.63;14.02;;;;;;;;;;4955497;28;20043;-71
2022/03/09 06:42:14;;;;;;;15.15;9.77;;;;;;;;;;4953722;28;20047;-71
2022/03/09 06:44:40;;;;;;;29.95;14.02;;;;;;;;;;4953960;28;20055;-71
2022/03/09 06:47:07;;;;;;;27.07;13.47;;;;;;;;;;4955448;28;20046;-71
2022/03/09 06:49:33;;;;;;;27.83;13.05;;;;;;;;;;4954591;28;20510;-71
2022/03/09 06:52:00;;;;;;;20.83;12.80;;;;;;;;;;4954561;28;20294;-71
2022/03/09 06:54:27;;;;;;;25.60;13.37;;;;;;;;;;4955641;28;20144;-71
2022/03/09 06:56:54;;;;;;;27.00;13.05;;;;;;;;;;4955085;28;20051;-72
2022/03/09 06:59:20;;;;;;;30.75;13.00;;;;;;;;;;4960807;28;20078;-71
2022/03/09 07:01:46;;;;;;;29.80;14.27;;;;;;;;;;4963841;28;20492;-71
2022/03/09 07:04:13;;;;;;;24.88;13.52;;;;;;;;;;4959845;28;20051;-72
2022/03/09 07:06:40;;;;;;;21.38;13.20;;;;;;;;;;4959440;28;20486;-71
2022/03/09 07:09:06;;;;;;;19.48;12.00;;;;;;;;;;4954027;28;20544;-71
2022/03/09 07:11:35;;;;;;;26.00;11.95;;;;;;;;;;4961207;28;20143;-71
2022/03/09 07:14:01;;;;;;;18.83;12.00;;;;;;;;;;4960847;28;20134;-72
2022/03/09 07:16:28;;;;;;;22.33;12.07;;;;;;;;;;4945585;28;20470;-71
2022/03/09 07:18:58;;;;;;;20.85;12.48;;;;;;;;;;4942620;28;20787;-71
2022/03/09 07:21:24;;;;;;;21.90;13.68;;;;;;;;;;4963841;28;20054;-71
2022/03/09 07:23:53;;;;;;;24.95;13.50;;;;;;;;;;4962040;28;20066;-71
2022/03/09 07:26:26;;;;;;;24.40;13.18;;;;;;;;;;4963721;28;20083;-71
2022/03/09 07:28:56;;;;;;;22.35;12.85;;;;;;;;;;4961161;28;20109;-71
2022/03/09 07:31:22;;;;;;;28.42;13.95;;;;;;;;;;4959098;28;20090;-71
2022/03/09 07:33:56;;;;;;;21.33;13.43;;;;;;;;;;4940568;28;20055;-71
2022/03/09 07:36:23;;;;;;;26.52;13.40;;;;;;;;;;4941513;28;20166;-70
2022/03/09 07:38:49;;;;;;;22.77;13.07;;;;;;;;;;4941170;28;20419;-72
2022/03/09 07:41:39;;;;;;;24.35;13.02;;;;;;;;;;4941880;28;20311;-71
2022/03/09 07:44:05;;;;;;;20.52;12.02;;;;;;;;;;4942107;28;20142;-71
2022/03/09 07:46:32;;;;;;;20.42;12.15;;;;;;;;;;4942844;28;20404;-71
2022/03/09 07:49:00;;;;;;;20.30;13.02;;;;;;;;;;4941800;28;20496;-71
2022/03/09 07:51:26;;;;;;;23.83;12.65;;;;;;;;;;4941555;28;20083;-71
2022/03/09 07:53:56;;;;;;;22.38;13.30;;;;;;;;;;4941182;28;20137;-71
2022/03/09 07:56:22;;;;;;;20.90;11.68;;;;;;;;;;4939973;28;20051;-71
2022/03/09 07:58:49;;;;;;;17.97;10.93;;;;;;;;;;4936767;28;20610;-71
2022/03/09 08:01:16;;;;;;;21.75;12.60;;;;;;;;;;4935976;28;20851;-71
2022/03/09 08:03:44;;;;;;;25.10;13.90;;;;;;;;;;4934547;28;20058;-71
2022/03/09 08:06:10;;;;;;;26.05;13.77;;;;;;;;;;4936331;28;20389;-71
2022/03/09 08:08:37;;;;;;;23.80;13.70;;;;;;;;;;4935479;28;20147;-71
2022/03/09 08:11:06;;;;;;;20.42;12.75;;;;;;;;;;4934527;28;20047;-71
2022/03/09 08:13:33;;;;;;;19.23;12.07;;;;;;;;;;4933650;28;20525;-71
2022/03/09 08:16:09;;;;;;;18.10;10.93;;;;;;;;;;4935353;28;20059;-71
2022/03/09 08:18:36;;;;;;;27.15;14.00;;;;;;;;;;4933966;28;20059;-71
2022/03/09 08:21:03;;;;;;;23.88;14.57;;;;;;;;;;4934159;28;20135;-71
2022/03/09 08:23:30;;;;;;;25.17;13.85;;;;;;;;;;4934102;28;20047;-71
2022/03/09 08:25:56;;;;;;;27.90;15.27;;;;;;;;;;4935540;28;20106;-71
2022/03/09 08:28:23;;;;;;;24.88;14.40;;;;;;;;;;4936002;28;20305;-71
2022/03/09 08:30:50;;;;;;;25.47;14.37;;;;;;;;;;4936821;28;20059;-71
2022/03/09 08:33:16;;;;;;;29.55;16.13;;;;;;;;;;4938148;28;20330;-71
2022/03/09 08:35:43;;;;;;;26.27;14.63;;;;;;;;;;4937403;28;20063;-71
2022/03/09 08:38:09;;;;;;;21.13;10.67;;;;;;;;;;4937906;28;20169;-70
2022/03/09 08:40:36;;;;;;;27.83;16.08;;;;;;;;;;4937707;28;20138;-71
2022/03/09 08:43:03;;;;;;;32.65;16.73;;;;;;;;;;4937264;28;20143;-71
2022/03/09 08:45:30;;;;;;;27.33;16.20;;;;;;;;;;4936570;28;20587;-70
2022/03/09 08:47:57;;;;;;;27.23;14.95;;;;;;;;;;4937868;28;20117;-70
2022/03/09 08:50:23;;;;;;;26.98;15.32;;;;;;;;;;4937640;28;20085;-71
2022/03/09 08:52:59;;;;;;;29.60;14.20;;;;;;;;;;4937127;28;20047;-72
2022/03/09 08:55:25;;;;;;;19.67;10.30;;;;;;;;;;4936271;28;20130;-71
2022/03/09 08:57:52;;;;;;;25.42;13.50;;;;;;;;;;4937240;28;20559;-71
2022/03/09 09:00:21;;;;;;;28.77;14.55;;;;;;;;;;4937729;28;20099;-71
2022/03/09 09:02:47;;;;;;;26.50;14.35;;;;;;;;;;4937554;28;20422;-71
2022/03/09 09:05:14;;;;;;;22.27;11.82;;;;;;;;;;4937554;28;20571;-71
2022/03/09 09:07:41;;;;;;;25.67;13.57;;;;;;;;;;4942689;28;20075;-71
2022/03/09 09:10:08;;;;;;;28.58;15.00;;;;;;;;;;4940472;28;20566;-71
2022/03/09 09:12:34;;;;;;;28.77;15.93;;;;;;;;;;4942373;28;20150;-71
2022/03/09 09:15:01;;;;;;;29.90;12.73;;;;;;;;;;4946839;28;20709;-71
2022/03/09 09:17:28;;;;;;;26.35;14.38;;;;;;;;;;4941695;28;20051;-71
2022/03/09 09:20:04;;;;;;;23.60;12.88;;;;;;;;;;4944119;28;20055;-71
2022/03/09 09:22:30;;;;;;;25.65;13.60;;;;;;;;;;4943846;28;20159;-71
2022/03/09 09:25:17;;;;;;;25.08;14.15;;;;;;;;;;4942036;28;20056;-71
2022/03/09 09:27:43;;;;;;;27.23;15.35;;;;;;;;;;4943849;28;20095;-70
2022/03/09 09:30:13;;;;;;;28.05;14.82;;;;;;;;;;4941290;28;20470;-71
2022/03/09 09:32:40;;;;;;;27.63;14.20;;;;;;;;;;4941276;28;20117;-71
2022/03/09 09:35:14;;;;;;;30.25;14.80;;;;;;;;;;4940328;28;20059;-70
2022/03/09 09:37:41;;;;;;;25.77;13.65;;;;;;;;;;4946335;28;20091;-70
2022/03/09 09:40:08;;;;;;;;;;;;;;;;;;4944338;28;20455;-71
2022/03/09 09:42:35;;;;;;;31.58;13.35;;;;;;;;;;4941064;28;20417;-71
2022/03/09 09:45:19;;;;;;;27.85;13.05;;;;;;;;;;4937999;28;20062;-72
2022/03/09 09:47:49;;;;;;;30.38;15.35;;;;;;;;;;4942475;28;20091;-70
2022/03/09 09:50:17;;;;;;;31.05;15.02;;;;;;;;;;4959447;28;20048;-70
2022/03/09 09:52:43;;;;;;;;;;;;;;;;;;4945209;28;20115;-71
2022/03/09 09:55:10;;;;;;;29.88;13.85;;;;;;;;;;4964565;28;20021;-71
2022/03/09 09:57:37;;;;;;;28.57;13.80;;;;;;;;;;4963997;28;20055;-71
2022/03/09 10:00:04;;;;;;;26.63;14.25;;;;;;;;;;4959412;28;20086;-71
2022/03/09 10:02:31;;;;;;;27.70;15.57;;;;;;;;;;4961403;28;20483;-71
2022/03/09 10:04:57;;;;;;;31.08;14.65;;;;;;;;;;4962746;28;20129;-71
2022/03/09 10:07:24;;;;;;;29.33;14.52;;;;;;;;;;4956002;28;20173;-71
2022/03/09 10:09:51;;;;;;;30.10;14.63;;;;;;;;;;4955472;28;20139;-71
2022/03/09 10:12:25;;;;;;;27.95;14.65;;;;;;;;;;4955766;28;20519;-72
2022/03/09 10:14:56;;;;;;;31.52;15.05;;;;;;;;;;4954557;28;20042;-71
2022/03/09 10:17:30;;;;;;;23.50;12.63;;;;;;;;;;4955374;28;20511;-71
2022/03/09 10:20:11;;;;;;;29.58;14.98;;;;;;;;;;4954157;28;20043;-71
2022/03/09 10:22:41;;;;;;;30.90;15.25;;;;;;;;;;4954567;28;20047;-71
2022/03/09 10:25:20;;;;;;;30.52;14.65;;;;;;;;;;4955756;28;20137;-71
2022/03/09 10:27:48;;;;;;;31.15;14.65;;;;;;;;;;4951031;28;20055;-70
2022/03/09 10:30:19;;;;;;;31.85;15.38;;;;;;;;;;4955153;28;20074;-71
2022/03/09 10:32:45;;;;;;;29.00;14.85;;;;;;;;;;4954989;28;20134;-71
2022/03/09 10:35:12;;;;;;;27.92;15.02;;;;;;;;;;4955628;28;20044;-70
2022/03/09 10:37:40;;;;;;;28.42;14.30;;;;;;;;;;4954844;28;20551;-71
2022/03/09 10:40:13;;;;;;;27.58;13.73;;;;;;;;;;4953722;28;20109;-70
2022/03/09 10:42:40;;;;;;;30.85;12.95;;;;;;;;;;4955251;28;20171;-70
2022/03/09 10:45:07;;;;;;;24.67;10.73;;;;;;;;;;4953928;28;20260;-71
2022/03/09 10:47:37;;;;;;;23.00;11.55;;;;;;;;;;4953975;28;20142;-70
2022/03/09 10:50:20;;;;;;;22.50;11.25;;;;;;;;;;4953244;28;20082;-71
2022/03/09 10:52:53;;;;;;;27.30;12.57;;;;;;;;;;4952722;28;20979;-70
2022/03/09 10:55:26;;;;;;;27.38;13.48;;;;;;;;;;4953677;28;20105;-71
2022/03/09 10:58:05;;;;;;;26.63;13.65;;;;;;;;;;4953636;28;20134;-70
2022/03/09 11:00:38;;;;;;;25.95;12.77;;;;;;;;;;4955394;28;20136;-70
2022/03/09 11:03:06;;;;;;;27.38;12.77;;;;;;;;;;4954734;28;20063;-70
2022/03/09 11:05:33;;;;;;;26.15;13.23;;;;;;;;;;4954646;28;20110;-70
2022/03/09 11:08:00;;;;;;;22.55;12.32;;;;;;;;;;4953655;28;20503;-70
2022/03/09 11:10:28;;;;;;;24.85;12.82;;;;;;;;;;4953693;28;20121;-71
2022/03/09 11:12:56;;;;;;;25.00;12.13;;;;;;;;;;4954203;28;20078;-70
2022/03/09 11:15:23;;;;;;;20.27;11.77;;;;;;;;;;4953332;28;20086;-70
2022/03/09 11:17:50;;;;;;;23.10;11.88;;;;;;;;;;4954140;28;20139;-70
2022/03/09 11:20:26;;;;;;;22.90;12.65;;;;;;;;;;4953857;28;20497;-72
2022/03/09 11:22:52;;;;;;;22.30;12.60;;;;;;;;;;4952681;28;20134;-73
2022/03/09 11:25:23;;;;;;;21.87;12.13;;;;;;;;;;4953791;28;20126;-72
2022/03/09 11:27:53;;;;;;;23.13;11.85;;;;;;;;;;4953035;28;20525;-72
2022/03/09 11:30:24;;;;;;;25.45;12.30;;;;;;;;;;4953512;28;20190;-72
2022/03/09 11:32:51;;;;;;;23.92;12.45;;;;;;;;;;4954543;28;20128;-73
2022/03/09 11:35:39;;;;;;;21.63;11.25;;;;;;;;;;4952222;28;20513;-72
2022/03/09 11:38:38;;;;;;;21.65;12.02;;;;;;;;;;4954278;28;20145;-72
2022/03/09 11:41:14;;;;;;;21.75;11.40;;;;;;;;;;4912766;28;20475;-72
2022/03/09 11:43:44;;;;;;;20.40;10.40;;;;;;;;;;4953533;28;20054;-72
2022/03/09 11:46:11;;;;;;;20.80;11.85;;;;;;;;;;4953905;28;20130;-72
2022/03/09 11:49:10;;;;;;;20.20;11.45;;;;;;;;;;4954568;28;20055;-72
2022/03/09 11:51:58;;;;;;;21.90;11.60;;;;;;;;;;4916299;28;20126;-70
2022/03/09 11:54:43;;;;;;;20.00;10.07;;;;;;;;;;4952547;28;20050;-72
2022/03/09 11:57:13;;;;;;;17.90;9.82;;;;;;;;;;4953431;28;20051;-70
2022/03/09 12:00:00;;;;;;;19.65;10.35;;;;;;;;;;4955123;28;20487;-73
2022/03/09 12:02:40;;;;;;;15.52;8.38;;;;;;;;;;4953078;28;20154;-72
2022/03/09 12:05:07;;;;;;;18.40;9.07;;;;;;;;;;4953869;28;20058;-72
2022/03/09 12:07:34;;;;;;;14.60;9.07;;;;;;;;;;4954913;28;20130;-72
2022/03/09 12:10:03;;;;;;;15.18;9.43;;;;;;;;;;4957290;28;20055;-72
2022/03/09 12:12:31;;;;;;;14.68;8.65;;;;;;;;;;4956798;28;20055;-72
2022/03/09 12:15:01;;;;;;;14.13;8.18;;;;;;;;;;4956665;28;20055;-72
2022/03/09 12:17:28;;;;;;;13.68;8.68;;;;;;;;;;4956813;28;20490;-71
2022/03/09 12:20:13;;;;;;;14.25;8.38;;;;;;;;;;4956649;28;20176;-71
2022/03/09 12:22:56;;;;;;;13.38;7.53;;;;;;;;;;4956759;28;20134;-72
2022/03/09 12:25:39;;;;;;;12.68;7.78;;;;;;;;;;4957020;28;20086;-72
2022/03/09 12:28:25;;;;;;;12.82;7.70;;;;;;;;;;4956475;28;20422;-73
2022/03/09 12:30:59;;;;;;;16.08;8.57;;;;;;;;;;4956645;28;20114;-72
2022/03/09 12:33:27;;;;;;;13.38;7.82;;;;;;;;;;4957760;28;20621;-71
2022/03/09 12:36:04;;;;;;;12.70;7.35;;;;;;;;;;4957047;28;20134;-71
2022/03/09 12:38:52;;;;;;;13.63;7.65;;;;;;;;;;4957367;28;20070;-72
2022/03/09 12:41:31;;;;;;;11.63;7.35;;;;;;;;;;4955739;28;20482;-72
2022/03/09 12:44:03;;;;;;;12.50;7.53;;;;;;;;;;4956101;28;21038;-71
2022/03/09 12:46:30;;;;;;;12.80;7.50;;;;;;;;;;4956121;28;20109;-72
2022/03/09 12:49:08;;;;;;;10.80;7.43;;;;;;;;;;4957065;28;20122;-71
2022/03/09 12:51:35;;;;;;;11.77;7.57;;;;;;;;;;4956703;28;20098;-72
2022/03/09 12:54:36;;;;;;;9.90;6.75;;;;;;;;;;4955915;28;20122;-72
2022/03/09 12:57:08;;;;;;;11.95;6.32;;;;;;;;;;4956687;28;20134;-72
2022/03/09 12:59:34;;;;;;;13.60;7.22;;;;;;;;;;4956201;28;20129;-72
2022/03/09 13:02:01;;;;;;;10.93;6.72;;;;;;;;;;4957214;28;20141;-72
2022/03/09 13:04:28;;;;;;;;;;;;;;;;;;4957609;28;20105;-72
2022/03/09 13:07:07;;;;;;;11.38;6.70;;;;;;;;;;4956685;28;20012;-72
2022/03/09 13:09:35;;;;;;;10.25;6.78;;;;;;;;;;4958082;28;20169;-72
2022/03/09 13:12:06;;;;;;;9.63;6.60;;;;;;;;;;4954240;28;20392;-72
2022/03/09 13:14:33;;;;;;;10.57;6.43;;;;;;;;;;4956093;28;20146;-71
2022/03/09 13:17:01;;;;;;;10.73;6.75;;;;;;;;;;4954703;28;20509;-72
2022/03/09 13:19:32;;;;;;;9.13;5.85;;;;;;;;;;4956925;28;20043;-71
2022/03/09 13:21:58;;;;;;;12.73;6.75;;;;;;;;;;4954899;28;20521;-71
2022/03/09 13:24:29;;;;;;;10.77;6.95;;;;;;;;;;4956033;28;20759;-72
2022/03/09 13:26:55;;;;;;;10.48;6.78;;;;;;;;;;4954519;28;20158;-71
2022/03/09 13:29:24;;;;;;;16.15;6.78;;;;;;;;;;4957115;28;20125;-72
2022/03/09 13:31:57;;;;;;;8.88;6.35;;;;;;;;;;4935793;28;20057;-72
2022/03/09 13:34:23;;;;;;;10.90;6.82;;;;;;;;;;4936981;28;20138;-72
2022/03/09 13:37:03;;;;;;;11.13;5.60;;;;;;;;;;4936349;28;20563;-72
2022/03/09 13:39:44;;;;;;;12.45;7.18;;;;;;;;;;4936360;28;20518;-72
2022/03/09 13:42:37;;;;;;;12.55;7.53;;;;;;;;;;4935488;28;20075;-72
2022/03/09 13:45:08;;;;;;;10.15;6.43;;;;;;;;;;4947487;28;20078;-72
2022/03/09 13:47:48;;;;;;;9.07;6.18;;;;;;;;;;4956164;28;20314;-71
2022/03/09 13:50:16;;;;;;;9.18;5.68;;;;;;;;;;4956707;28;20055;-72
2022/03/09 13:52:42;;;;;;;10.60;6.32;;;;;;;;;;4957364;28;20137;-72
2022/03/09 13:55:17;;;;;;;11.40;6.38;;;;;;;;;;4956611;28;20156;-72
2022/03/09 13:57:44;;;;;;;13.27;6.60;;;;;;;;;;4955928;28;20137;-72
2022/03/09 14:00:11;;;;;;;11.32;6.95;;;;;;;;;;4958302;28;20769;-72
2022/03/09 14:02:37;;;;;;;11.25;7.18;;;;;;;;;;4955789;28;20519;-72
2022/03/09 14:05:06;;;;;;;12.57;6.40;;;;;;;;;;4958411;28;20058;-72
2022/03/09 14:07:52;;;;;;;9.90;6.88;;;;;;;;;;4957654;28;20526;-72
2022/03/09 14:10:24;;;;;;;11.47;6.63;;;;;;;;;;4957003;28;20038;-72
2022/03/09 14:12:50;;;;;;;10.35;6.18;;;;;;;;;;4956012;28;20149;-72
2022/03/09 14:15:16;;;;;;;9.98;6.35;;;;;;;;;;4955262;28;20139;-72
2022/03/09 14:17:43;;;;;;;10.90;7.13;;;;;;;;;;4954092;28;20206;-72
2022/03/09 14:20:11;;;;;;;11.88;6.45;;;;;;;;;;4956910;28;20051;-72
2022/03/09 14:22:41;;;;;;;10.15;6.00;;;;;;;;;;4955402;28;20109;-72
2022/03/09 14:25:08;;;;;;;9.20;5.85;;;;;;;;;;4956745;28;20089;-71
2022/03/09 14:27:35;;;;;;;9.65;6.38;;;;;;;;;;4941417;28;20093;-72
2022/03/09 14:30:06;;;;;;;8.35;5.60;;;;;;;;;;4954058;28;20186;-72
2022/03/09 14:32:33;;;;;;;8.27;5.63;;;;;;;;;;4955765;28;20590;-72
2022/03/09 14:34:59;;;;;;;11.37;6.23;;;;;;;;;;4957486;28;20046;-72
2022/03/09 14:37:25;;;;;;;10.18;5.82;;;;;;;;;;4956514;28;20182;-72